sensor_id;sensor_type;location;lat;lon;timestamp;P1;durP1;ratioP1;P2;durP2;ratioP2
3696;SDS011;60662;48.810;8.872;2022-08-05T06:21:00;6.88;;;3.10;;
3696;SDS011;60662;48.810;8.872;2022-08-05T06:22:02;5.68;;;3.47;;
3696;SDS011;60662;48.810;8.872;2022-08-05T06:23:06;9.60;;;3.60;;
3696;SDS011;60662;48.810;8.872;2022-08-05T06:24:08;8.85;;;3.35;;
3696;SDS011;60662;48.810;8.872;2022-08-05T06:25:12;7.25;;;3.30;;
3696;SDS011;60662;48.810;8.872;2022-08-05T06:26:34;5.95;;;2.97;;
3696;SDS011;60662;48.810;8.872;2022-08-05T06:27:36;8.77;;;3.13;;
3696;SDS011;60662;48.810;8.872;2022-08-05T06:28:57;13.52;;;3.20;;
3696;SDS011;60662;48.810;8.872;2022-08-05T06:30:03;23.48;;;3.67;;
3696;SDS011;60662;48.810;8.872;2022-08-05T06:31:21;11.07;;;2.95;;
3696;SDS011;60662;48.810;8.872;2022-08-05T06:32:32;8.25;;;3.22;;
3696;SDS011;60662;48.810;8.872;2022-08-05T06:33:33;4.20;;;2.25;;
3696;SDS011;60662;48.810;8.872;2022-08-05T06:34:55;6.22;;;2.25;;
3696;SDS011;60662;48.810;8.872;2022-08-05T06:35:58;5.22;;;2.30;;
3696;SDS011;60662;48.810;8.872;2022-08-05T06:37:10;11.38;;;2.20;;
3696;SDS011;60662;48.810;8.872;2022-08-05T06:38:12;3.53;;;2.00;;
3696;SDS011;60662;48.810;8.872;2022-08-05T06:39:13;5.88;;;2.55;;
3696;SDS011;60662;48.810;8.872;2022-08-05T07:11:50;4.32;;;2.58;;
3696;SDS011;60662;48.810;8.872;2022-08-05T07:12:52;4.97;;;2.00;;
3696;SDS011;60662;48.810;8.872;2022-08-05T07:14:13;4.25;;;2.05;;
3696;SDS011;60662;48.810;8.872;2022-08-05T07:15:34;4.70;;;2.00;;
3696;SDS011;60662;48.810;8.872;2022-08-05T07:17:04;4.90;;;2.35;;
3696;SDS011;60662;48.810;8.872;2022-08-05T07:18:26;5.68;;;1.65;;
3696;SDS011;60662;48.810;8.872;2022-08-05T07:19:30;4.00;;;1.80;;
3696;SDS011;60662;48.810;8.872;2022-08-05T07:20:52;4.68;;;1.90;;
3696;SDS011;60662;48.810;8.872;2022-08-05T07:21:54;6.03;;;1.90;;
3696;SDS011;60662;48.810;8.872;2022-08-05T07:23:01;5.80;;;2.08;;
3696;SDS011;60662;48.810;8.872;2022-08-05T07:24:04;3.38;;;2.03;;
3696;SDS011;60662;48.810;8.872;2022-08-05T07:25:11;4.63;;;2.10;;
3696;SDS011;60662;48.810;8.872;2022-08-05T07:26:33;3.70;;;1.65;;
3696;SDS011;60662;48.810;8.872;2022-08-05T07:27:34;3.78;;;1.70;;
3696;SDS011;60662;48.810;8.872;2022-08-05T07:28:55;5.93;;;2.20;;
3696;SDS011;60662;48.810;8.872;2022-08-05T07:29:59;3.20;;;1.50;;
3696;SDS011;60662;48.810;8.872;2022-08-05T07:31:22;2.80;;;1.90;;
3696;SDS011;60662;48.810;8.872;2022-08-05T07:32:44;3.97;;;1.75;;
3696;SDS011;60662;48.810;8.872;2022-08-05T07:33:53;5.15;;;1.92;;
3696;SDS011;60662;48.810;8.872;2022-08-05T07:34:59;2.47;;;1.45;;
3696;SDS011;60662;48.810;8.872;2022-08-05T07:36:21;4.97;;;1.90;;
3696;SDS011;60662;48.810;8.872;2022-08-05T07:37:23;2.20;;;1.40;;
3696;SDS011;60662;48.810;8.872;2022-08-05T07:38:36;8.27;;;2.00;;
3696;SDS011;60662;48.810;8.872;2022-08-05T07:39:44;6.68;;;1.70;;
3696;SDS011;60662;48.810;8.872;2022-08-05T07:41:07;3.75;;;1.50;;
3696;SDS011;60662;48.810;8.872;2022-08-05T07:42:30;2.35;;;1.15;;
3696;SDS011;60662;48.810;8.872;2022-08-05T07:43:36;2.92;;;1.55;;
3696;SDS011;60662;48.810;8.872;2022-08-05T07:44:38;8.00;;;1.80;;
3696;SDS011;60662;48.810;8.872;2022-08-05T07:45:41;3.20;;;1.58;;
3696;SDS011;60662;48.810;8.872;2022-08-05T07:46:58;5.85;;;1.60;;
3696;SDS011;60662;48.810;8.872;2022-08-05T07:48:00;4.60;;;1.35;;
3696;SDS011;60662;48.810;8.872;2022-08-05T07:49:02;5.95;;;1.10;;
3696;SDS011;60662;48.810;8.872;2022-08-05T07:50:08;6.95;;;1.85;;
3696;SDS011;60662;48.810;8.872;2022-08-05T08:23:46;5.40;;;1.60;;
3696;SDS011;60662;48.810;8.872;2022-08-05T08:25:04;3.67;;;1.35;;
3696;SDS011;60662;48.810;8.872;2022-08-05T08:26:17;5.20;;;1.60;;
3696;SDS011;60662;48.810;8.872;2022-08-05T08:27:30;1.90;;;1.25;;
3696;SDS011;60662;48.810;8.872;2022-08-05T08:28:42;3.20;;;2.05;;
3696;SDS011;60662;48.810;8.872;2022-08-05T08:30:00;5.20;;;1.77;;
3696;SDS011;60662;48.810;8.872;2022-08-05T08:31:20;4.93;;;2.10;;
3696;SDS011;60662;48.810;8.872;2022-08-05T08:32:22;3.58;;;1.40;;
3696;SDS011;60662;48.810;8.872;2022-08-05T08:33:28;3.35;;;2.00;;
3696;SDS011;60662;48.810;8.872;2022-08-05T08:34:37;2.10;;;1.58;;
3696;SDS011;60662;48.810;8.872;2022-08-05T08:35:39;3.85;;;1.80;;
3696;SDS011;60662;48.810;8.872;2022-08-05T08:36:52;3.15;;;1.70;;
3696;SDS011;60662;48.810;8.872;2022-08-05T08:38:05;3.08;;;1.25;;
3696;SDS011;60662;48.810;8.872;2022-08-05T08:39:06;3.17;;;2.00;;
3696;SDS011;60662;48.810;8.872;2022-08-05T08:40:15;4.10;;;1.50;;
3696;SDS011;60662;48.810;8.872;2022-08-05T08:41:22;3.30;;;1.70;;
3696;SDS011;60662;48.810;8.872;2022-08-05T08:42:47;4.50;;;1.77;;
3696;SDS011;60662;48.810;8.872;2022-08-05T08:43:53;3.47;;;1.98;;
3696;SDS011;60662;48.810;8.872;2022-08-05T08:45:15;3.75;;;1.88;;
3696;SDS011;60662;48.810;8.872;2022-08-05T08:46:30;3.58;;;1.65;;
3696;SDS011;60662;48.810;8.872;2022-08-05T08:47:32;5.05;;;2.10;;
3696;SDS011;60662;48.810;8.872;2022-08-05T08:48:54;2.63;;;1.80;;
3696;SDS011;60662;48.810;8.872;2022-08-05T08:50:19;4.63;;;1.90;;
3696;SDS011;60662;48.810;8.872;2022-08-05T08:51:33;5.53;;;1.83;;
3696;SDS011;60662;48.810;8.872;2022-08-05T08:52:59;4.55;;;1.80;;
3696;SDS011;60662;48.810;8.872;2022-08-05T08:54:12;5.80;;;2.00;;
3696;SDS011;60662;48.810;8.872;2022-08-05T08:55:14;3.22;;;1.90;;
3696;SDS011;60662;48.810;8.872;2022-08-05T08:56:37;4.90;;;1.33;;
3696;SDS011;60662;48.810;8.872;2022-08-05T08:57:49;4.00;;;1.90;;
3696;SDS011;60662;48.810;8.872;2022-08-05T08:58:59;4.15;;;1.77;;
3696;SDS011;60662;48.810;8.872;2022-08-05T09:00:10;3.30;;;1.65;;
3696;SDS011;60662;48.810;8.872;2022-08-05T09:01:16;3.40;;;1.90;;
3696;SDS011;60662;48.810;8.872;2022-08-05T09:02:20;7.60;;;1.63;;
3696;SDS011;60662;48.810;8.872;2022-08-05T09:03:27;2.03;;;1.40;;
3696;SDS011;60662;48.810;8.872;2022-08-05T09:04:45;5.80;;;1.70;;
3696;SDS011;60662;48.810;8.872;2022-08-05T09:06:07;5.50;;;1.90;;
3696;SDS011;60662;48.810;8.872;2022-08-05T09:07:17;2.40;;;1.30;;
3696;SDS011;60662;48.810;8.872;2022-08-05T09:08:28;2.63;;;1.93;;
3696;SDS011;60662;48.810;8.872;2022-08-05T09:09:30;4.93;;;1.47;;
3696;SDS011;60662;48.810;8.872;2022-08-05T09:10:35;4.17;;;1.83;;
3696;SDS011;60662;48.810;8.872;2022-08-05T09:11:40;3.90;;;2.27;;
3696;SDS011;60662;48.810;8.872;2022-08-05T09:12:54;3.93;;;1.90;;
3696;SDS011;60662;48.810;8.872;2022-08-05T09:14:05;8.70;;;1.50;;
3696;SDS011;60662;48.810;8.872;2022-08-05T09:15:26;3.70;;;1.77;;
3696;SDS011;60662;48.810;8.872;2022-08-05T09:16:30;3.50;;;1.77;;
3696;SDS011;60662;48.810;8.872;2022-08-05T09:17:32;4.43;;;1.20;;
3696;SDS011;60662;48.810;8.872;2022-08-05T09:18:41;11.00;;;1.73;;
3696;SDS011;60662;48.810;8.872;2022-08-05T09:19:44;4.70;;;1.70;;
3696;SDS011;60662;48.810;8.872;2022-08-05T09:21:03;7.13;;;1.63;;
3696;SDS011;60662;48.810;8.872;2022-08-05T09:22:11;4.27;;;1.50;;
3696;SDS011;60662;48.810;8.872;2022-08-05T09:23:18;4.50;;;2.00;;
3696;SDS011;60662;48.810;8.872;2022-08-05T09:24:27;2.70;;;1.30;;
3696;SDS011;60662;48.810;8.872;2022-08-05T09:25:32;4.87;;;1.80;;
3696;SDS011;60662;48.810;8.872;2022-08-05T09:26:55;6.80;;;1.53;;
3696;SDS011;60662;48.810;8.872;2022-08-05T09:28:08;12.70;;;1.70;;
3696;SDS011;60662;48.810;8.872;2022-08-05T09:29:13;3.73;;;1.73;;
3696;SDS011;60662;48.810;8.872;2022-08-05T09:30:19;4.17;;;1.40;;
3696;SDS011;60662;48.810;8.872;2022-08-05T09:31:23;2.30;;;1.67;;
3696;SDS011;60662;48.810;8.872;2022-08-05T09:32:45;7.13;;;1.40;;
3696;SDS011;60662;48.810;8.872;2022-08-05T09:33:50;4.20;;;1.63;;
3696;SDS011;60662;48.810;8.872;2022-08-05T09:34:58;6.23;;;1.80;;
3696;SDS011;60662;48.810;8.872;2022-08-05T09:36:03;4.65;;;1.90;;
3696;SDS011;60662;48.810;8.872;2022-08-05T09:37:21;4.45;;;2.10;;
3696;SDS011;60662;48.810;8.872;2022-08-05T09:38:57;8.27;;;2.40;;
3696;SDS011;60662;48.810;8.872;2022-08-05T09:40:02;2.70;;;1.77;;
3696;SDS011;60662;48.810;8.872;2022-08-05T09:41:05;1.93;;;1.40;;
3696;SDS011;60662;48.810;8.872;2022-08-05T09:42:10;4.90;;;1.43;;
3696;SDS011;60662;48.810;8.872;2022-08-05T09:43:32;2.10;;;1.30;;
3696;SDS011;60662;48.810;8.872;2022-08-05T09:44:43;6.10;;;2.00;;
3696;SDS011;60662;48.810;8.872;2022-08-05T09:45:51;4.30;;;1.63;;
3696;SDS011;60662;48.810;8.872;2022-08-05T09:47:12;3.73;;;1.77;;
3696;SDS011;60662;48.810;8.872;2022-08-05T09:49:28;5.90;;;1.80;;
3696;SDS011;60662;48.810;8.872;2022-08-05T09:50:50;2.63;;;1.40;;
3696;SDS011;60662;48.810;8.872;2022-08-05T09:51:57;3.20;;;1.80;;
3696;SDS011;60662;48.810;8.872;2022-08-05T09:52:59;6.10;;;1.70;;
3696;SDS011;60662;48.810;8.872;2022-08-05T09:54:01;2.50;;;1.37;;
3696;SDS011;60662;48.810;8.872;2022-08-05T09:55:06;2.60;;;1.70;;
3696;SDS011;60662;48.810;8.872;2022-08-05T09:56:30;5.10;;;1.40;;
3696;SDS011;60662;48.810;8.872;2022-08-05T09:57:39;5.63;;;1.93;;
3696;SDS011;60662;48.810;8.872;2022-08-05T09:58:54;3.37;;;1.47;;
3696;SDS011;60662;48.810;8.872;2022-08-05T10:00:18;2.40;;;1.90;;
3696;SDS011;60662;48.810;8.872;2022-08-05T10:01:27;4.67;;;2.40;;
3696;SDS011;60662;48.810;8.872;2022-08-05T10:02:33;6.03;;;1.67;;
3696;SDS011;60662;48.810;8.872;2022-08-05T10:03:39;2.50;;;1.63;;
3696;SDS011;60662;48.810;8.872;2022-08-05T10:05:04;3.10;;;1.60;;
3696;SDS011;60662;48.810;8.872;2022-08-05T10:06:08;1.93;;;1.33;;
3696;SDS011;60662;48.810;8.872;2022-08-05T10:07:16;2.40;;;1.20;;
3696;SDS011;60662;48.810;8.872;2022-08-05T10:33:40;2.80;;;1.43;;
3696;SDS011;60662;48.810;8.872;2022-08-05T10:34:43;5.63;;;1.40;;
3696;SDS011;60662;48.810;8.872;2022-08-05T10:35:47;8.23;;;1.50;;
3696;SDS011;60662;48.810;8.872;2022-08-05T10:36:59;2.33;;;1.37;;
3696;SDS011;60662;48.810;8.872;2022-08-05T10:38:03;3.53;;;1.50;;
3696;SDS011;60662;48.810;8.872;2022-08-05T10:39:28;2.27;;;1.47;;
3696;SDS011;60662;48.810;8.872;2022-08-05T10:40:55;2.67;;;1.50;;
3696;SDS011;60662;48.810;8.872;2022-08-05T10:42:11;2.53;;;1.60;;
3696;SDS011;60662;48.810;8.872;2022-08-05T10:43:36;4.40;;;1.30;;
3696;SDS011;60662;48.810;8.872;2022-08-05T10:44:48;4.33;;;1.60;;
3696;SDS011;60662;48.810;8.872;2022-08-05T10:45:54;4.47;;;1.50;;
3696;SDS011;60662;48.810;8.872;2022-08-05T10:47:10;3.00;;;1.60;;
3696;SDS011;60662;48.810;8.872;2022-08-05T10:48:35;7.13;;;1.83;;
3696;SDS011;60662;48.810;8.872;2022-08-05T10:50:01;3.30;;;1.17;;
3696;SDS011;60662;48.810;8.872;2022-08-05T10:51:46;3.43;;;1.23;;
3696;SDS011;60662;48.810;8.872;2022-08-05T10:53:01;1.63;;;1.20;;
3696;SDS011;60662;48.810;8.872;2022-08-05T10:54:04;3.37;;;1.37;;
3696;SDS011;60662;48.810;8.872;2022-08-05T10:55:23;2.57;;;1.37;;
3696;SDS011;60662;48.810;8.872;2022-08-05T10:56:26;3.00;;;1.60;;
3696;SDS011;60662;48.810;8.872;2022-08-05T10:57:29;3.27;;;1.63;;
3696;SDS011;60662;48.810;8.872;2022-08-05T10:58:35;9.40;;;1.30;;
3696;SDS011;60662;48.810;8.872;2022-08-05T11:00:05;2.67;;;1.43;;
3696;SDS011;60662;48.810;8.872;2022-08-05T11:01:27;4.77;;;2.27;;
3696;SDS011;60662;48.810;8.872;2022-08-05T11:04:26;4.30;;;1.43;;
3696;SDS011;60662;48.810;8.872;2022-08-05T11:05:31;2.30;;;1.50;;
3696;SDS011;60662;48.810;8.872;2022-08-05T11:08:07;3.83;;;1.47;;
3696;SDS011;60662;48.810;8.872;2022-08-05T11:09:37;4.77;;;1.30;;
3696;SDS011;60662;48.810;8.872;2022-08-05T11:10:48;6.17;;;1.67;;
3696;SDS011;60662;48.810;8.872;2022-08-05T11:12:02;6.63;;;1.47;;
3696;SDS011;60662;48.810;8.872;2022-08-05T11:13:04;2.23;;;1.40;;
3696;SDS011;60662;48.810;8.872;2022-08-05T11:14:06;2.40;;;1.67;;
3696;SDS011;60662;48.810;8.872;2022-08-05T11:16:21;2.63;;;1.40;;
3696;SDS011;60662;48.810;8.872;2022-08-05T11:17:37;3.77;;;1.40;;
3696;SDS011;60662;48.810;8.872;2022-08-05T11:20:52;3.43;;;1.43;;
3696;SDS011;60662;48.810;8.872;2022-08-05T11:21:54;1.80;;;1.30;;
3696;SDS011;60662;48.810;8.872;2022-08-05T11:23:51;3.60;;;1.47;;
3696;SDS011;60662;48.810;8.872;2022-08-05T11:27:27;4.27;;;1.77;;
3696;SDS011;60662;48.810;8.872;2022-08-05T11:28:50;2.10;;;1.37;;
3696;SDS011;60662;48.810;8.872;2022-08-05T11:29:58;7.13;;;1.60;;
3696;SDS011;60662;48.810;8.872;2022-08-05T11:32:26;1.47;;;1.30;;
3696;SDS011;60662;48.810;8.872;2022-08-05T11:33:36;1.70;;;1.10;;
3696;SDS011;60662;48.810;8.872;2022-08-05T11:34:48;3.63;;;1.57;;
3696;SDS011;60662;48.810;8.872;2022-08-05T11:35:56;4.37;;;1.53;;
3696;SDS011;60662;48.810;8.872;2022-08-05T11:37:09;1.73;;;1.17;;
3696;SDS011;60662;48.810;8.872;2022-08-05T11:39:51;4.90;;;1.60;;
3696;SDS011;60662;48.810;8.872;2022-08-05T11:40:56;2.27;;;1.37;;
3696;SDS011;60662;48.810;8.872;2022-08-05T11:42:15;2.30;;;1.27;;
3696;SDS011;60662;48.810;8.872;2022-08-05T11:43:28;5.70;;;2.00;;
3696;SDS011;60662;48.810;8.872;2022-08-05T11:45:01;2.77;;;1.27;;
3696;SDS011;60662;48.810;8.872;2022-08-05T11:46:05;1.83;;;1.30;;
3696;SDS011;60662;48.810;8.872;2022-08-05T11:47:27;7.87;;;1.40;;
3696;SDS011;60662;48.810;8.872;2022-08-05T11:48:49;8.77;;;1.20;;
3696;SDS011;60662;48.810;8.872;2022-08-05T11:49:55;2.90;;;1.40;;
3696;SDS011;60662;48.810;8.872;2022-08-05T11:50:58;5.60;;;1.40;;
3696;SDS011;60662;48.810;8.872;2022-08-05T11:51:59;1.87;;;1.10;;
3696;SDS011;60662;48.810;8.872;2022-08-05T11:53:08;4.87;;;1.53;;
3696;SDS011;60662;48.810;8.872;2022-08-05T11:54:19;1.47;;;1.13;;
3696;SDS011;60662;48.810;8.872;2022-08-05T11:55:34;3.20;;;1.17;;
3696;SDS011;60662;48.810;8.872;2022-08-05T11:57:50;7.23;;;1.30;;
3696;SDS011;60662;48.810;8.872;2022-08-05T11:59:13;2.17;;;1.30;;
3696;SDS011;60662;48.810;8.872;2022-08-05T12:00:27;1.70;;;1.27;;
3696;SDS011;60662;48.810;8.872;2022-08-05T12:01:30;1.87;;;1.10;;
3696;SDS011;60662;48.810;8.872;2022-08-05T12:02:33;4.40;;;1.17;;
3696;SDS011;60662;48.810;8.872;2022-08-05T12:04:45;3.77;;;1.43;;
3696;SDS011;60662;48.810;8.872;2022-08-05T12:06:00;1.70;;;1.20;;
3696;SDS011;60662;48.810;8.872;2022-08-05T12:07:06;11.13;;;1.40;;
3696;SDS011;60662;48.810;8.872;2022-08-05T12:08:09;2.73;;;1.50;;
3696;SDS011;60662;48.810;8.872;2022-08-05T12:09:20;4.00;;;1.00;;
3696;SDS011;60662;48.810;8.872;2022-08-05T12:10:44;1.30;;;1.00;;
3696;SDS011;60662;48.810;8.872;2022-08-05T12:11:48;1.50;;;1.30;;
3696;SDS011;60662;48.810;8.872;2022-08-05T12:12:51;2.03;;;1.23;;
3696;SDS011;60662;48.810;8.872;2022-08-05T12:14:04;1.37;;;1.00;;
3696;SDS011;60662;48.810;8.872;2022-08-05T12:15:20;2.90;;;1.17;;
3696;SDS011;60662;48.810;8.872;2022-08-05T12:16:39;3.70;;;0.97;;
3696;SDS011;60662;48.810;8.872;2022-08-05T12:17:46;1.60;;;1.17;;
3696;SDS011;60662;48.810;8.872;2022-08-05T12:19:08;3.47;;;1.00;;
3696;SDS011;60662;48.810;8.872;2022-08-05T12:20:31;1.20;;;1.00;;
3696;SDS011;60662;48.810;8.872;2022-08-05T12:21:35;1.77;;;0.90;;
3696;SDS011;60662;48.810;8.872;2022-08-05T12:22:46;2.73;;;1.03;;
3696;SDS011;60662;48.810;8.872;2022-08-05T12:23:59;2.40;;;1.37;;
3696;SDS011;60662;48.810;8.872;2022-08-05T12:25:05;2.33;;;1.37;;
3696;SDS011;60662;48.810;8.872;2022-08-05T12:26:07;1.53;;;1.07;;
3696;SDS011;60662;48.810;8.872;2022-08-05T12:27:09;3.70;;;1.40;;
3696;SDS011;60662;48.810;8.872;2022-08-05T12:28:28;3.40;;;1.87;;
3696;SDS011;60662;48.810;8.872;2022-08-05T12:29:34;5.97;;;4.00;;
3696;SDS011;60662;48.810;8.872;2022-08-05T12:30:39;2.47;;;1.50;;
3696;SDS011;60662;48.810;8.872;2022-08-05T12:32:57;1.50;;;0.90;;
3696;SDS011;60662;48.810;8.872;2022-08-05T12:34:20;2.23;;;1.50;;
3696;SDS011;60662;48.810;8.872;2022-08-05T12:35:26;1.30;;;1.00;;
3696;SDS011;60662;48.810;8.872;2022-08-05T12:36:40;1.17;;;1.03;;
3696;SDS011;60662;48.810;8.872;2022-08-05T12:37:44;2.43;;;1.10;;
3696;SDS011;60662;48.810;8.872;2022-08-05T12:38:48;1.30;;;0.90;;
3696;SDS011;60662;48.810;8.872;2022-08-05T12:39:50;3.00;;;1.20;;
3696;SDS011;60662;48.810;8.872;2022-08-05T12:40:55;1.17;;;0.97;;
3696;SDS011;60662;48.810;8.872;2022-08-05T12:41:57;1.70;;;1.13;;
3696;SDS011;60662;48.810;8.872;2022-08-05T12:43:01;1.20;;;1.00;;
3696;SDS011;60662;48.810;8.872;2022-08-05T12:44:10;1.33;;;0.97;;
3696;SDS011;60662;48.810;8.872;2022-08-05T12:45:14;3.10;;;1.30;;
3696;SDS011;60662;48.810;8.872;2022-08-05T12:46:19;2.43;;;0.90;;
3696;SDS011;60662;48.810;8.872;2022-08-05T12:47:29;1.60;;;1.20;;
3696;SDS011;60662;48.810;8.872;2022-08-05T12:48:37;3.67;;;0.80;;
3696;SDS011;60662;48.810;8.872;2022-08-05T12:51:09;2.13;;;0.90;;
3696;SDS011;60662;48.810;8.872;2022-08-05T12:52:36;2.67;;;1.30;;
3696;SDS011;60662;48.810;8.872;2022-08-05T12:53:43;2.30;;;0.97;;
3696;SDS011;60662;48.810;8.872;2022-08-05T12:54:56;1.47;;;1.10;;
3696;SDS011;60662;48.810;8.872;2022-08-05T12:55:59;1.93;;;1.23;;
3696;SDS011;60662;48.810;8.872;2022-08-05T12:57:01;2.20;;;1.30;;
3696;SDS011;60662;48.810;8.872;2022-08-05T12:58:21;1.40;;;1.10;;
3696;SDS011;60662;48.810;8.872;2022-08-05T12:59:48;1.93;;;1.33;;
3696;SDS011;60662;48.810;8.872;2022-08-05T13:01:12;3.10;;;0.93;;
3696;SDS011;60662;48.810;8.872;2022-08-05T13:02:35;1.50;;;1.00;;
3696;SDS011;60662;48.810;8.872;2022-08-05T13:03:40;1.80;;;1.20;;
3696;SDS011;60662;48.810;8.872;2022-08-05T13:04:45;1.73;;;1.07;;
3696;SDS011;60662;48.810;8.872;2022-08-05T13:05:55;2.73;;;1.17;;
3696;SDS011;60662;48.810;8.872;2022-08-05T13:06:57;2.47;;;1.30;;
3696;SDS011;60662;48.810;8.872;2022-08-05T13:08:02;2.40;;;1.10;;
3696;SDS011;60662;48.810;8.872;2022-08-05T13:09:09;4.07;;;1.10;;
3696;SDS011;60662;48.810;8.872;2022-08-05T13:10:14;3.33;;;0.90;;
3696;SDS011;60662;48.810;8.872;2022-08-05T13:11:28;5.00;;;1.20;;
3696;SDS011;60662;48.810;8.872;2022-08-05T13:12:50;4.50;;;1.00;;
3696;SDS011;60662;48.810;8.872;2022-08-05T13:13:58;2.43;;;1.60;;
3696;SDS011;60662;48.810;8.872;2022-08-05T13:15:11;3.00;;;1.27;;
3696;SDS011;60662;48.810;8.872;2022-08-05T13:16:24;1.87;;;1.23;;
3696;SDS011;60662;48.810;8.872;2022-08-05T13:17:29;2.10;;;1.67;;
3696;SDS011;60662;48.810;8.872;2022-08-05T13:18:52;2.23;;;1.23;;
3696;SDS011;60662;48.810;8.872;2022-08-05T13:21:04;4.00;;;1.30;;
3696;SDS011;60662;48.810;8.872;2022-08-05T13:22:06;2.00;;;1.10;;
3696;SDS011;60662;48.810;8.872;2022-08-05T13:23:12;1.57;;;1.27;;
3696;SDS011;60662;48.810;8.872;2022-08-05T13:24:16;1.73;;;1.23;;
3696;SDS011;60662;48.810;8.872;2022-08-05T13:25:39;2.27;;;1.03;;
3696;SDS011;60662;48.810;8.872;2022-08-05T13:26:59;1.67;;;1.00;;
3696;SDS011;60662;48.810;8.872;2022-08-05T13:28:01;5.13;;;1.07;;
3696;SDS011;60662;48.810;8.872;2022-08-05T13:29:04;6.10;;;0.97;;
3696;SDS011;60662;48.810;8.872;2022-08-05T13:30:07;1.87;;;1.37;;
3696;SDS011;60662;48.810;8.872;2022-08-05T13:31:31;3.70;;;1.03;;
3696;SDS011;60662;48.810;8.872;2022-08-05T13:32:52;1.80;;;1.30;;
3696;SDS011;60662;48.810;8.872;2022-08-05T13:33:56;2.80;;;1.40;;
3696;SDS011;60662;48.810;8.872;2022-08-05T13:35:18;4.27;;;1.00;;
3696;SDS011;60662;48.810;8.872;2022-08-05T13:36:31;1.50;;;1.10;;
3696;SDS011;60662;48.810;8.872;2022-08-05T13:37:34;1.90;;;1.17;;
3696;SDS011;60662;48.810;8.872;2022-08-05T13:38:36;1.27;;;0.90;;
3696;SDS011;60662;48.810;8.872;2022-08-05T13:39:43;6.73;;;1.73;;
3696;SDS011;60662;48.810;8.872;2022-08-05T13:41:04;6.03;;;1.10;;
3696;SDS011;60662;48.810;8.872;2022-08-05T13:42:06;3.10;;;1.20;;
3696;SDS011;60662;48.810;8.872;2022-08-05T13:43:15;1.70;;;1.20;;
3696;SDS011;60662;48.810;8.872;2022-08-05T13:44:22;1.80;;;1.10;;
3696;SDS011;60662;48.810;8.872;2022-08-05T13:45:24;2.43;;;1.40;;
3696;SDS011;60662;48.810;8.872;2022-08-05T13:46:38;7.13;;;1.20;;
3696;SDS011;60662;48.810;8.872;2022-08-05T13:48:00;22.03;;;1.80;;
3696;SDS011;60662;48.810;8.872;2022-08-05T13:49:21;1.60;;;0.90;;
3696;SDS011;60662;48.810;8.872;2022-08-05T13:50:23;4.20;;;1.30;;
3696;SDS011;60662;48.810;8.872;2022-08-05T13:51:26;2.57;;;1.20;;
3696;SDS011;60662;48.810;8.872;2022-08-05T13:52:40;8.67;;;1.60;;
3696;SDS011;60662;48.810;8.872;2022-08-05T13:53:44;3.80;;;1.13;;
3696;SDS011;60662;48.810;8.872;2022-08-05T13:54:48;8.97;;;1.47;;
3696;SDS011;60662;48.810;8.872;2022-08-05T13:55:53;1.70;;;1.20;;
3696;SDS011;60662;48.810;8.872;2022-08-05T13:57:02;3.40;;;1.47;;
3696;SDS011;60662;48.810;8.872;2022-08-05T13:58:06;2.00;;;1.20;;
3696;SDS011;60662;48.810;8.872;2022-08-05T13:59:11;4.63;;;1.23;;
3696;SDS011;60662;48.810;8.872;2022-08-05T14:00:21;3.77;;;1.40;;
3696;SDS011;60662;48.810;8.872;2022-08-05T14:01:28;3.13;;;1.53;;
3696;SDS011;60662;48.810;8.872;2022-08-05T14:02:46;3.40;;;1.60;;
3696;SDS011;60662;48.810;8.872;2022-08-05T14:03:48;2.03;;;0.90;;
3696;SDS011;60662;48.810;8.872;2022-08-05T14:05:09;2.97;;;1.30;;
3696;SDS011;60662;48.810;8.872;2022-08-05T14:06:15;4.40;;;1.43;;
3696;SDS011;60662;48.810;8.872;2022-08-05T14:07:31;1.70;;;1.00;;
3696;SDS011;60662;48.810;8.872;2022-08-05T14:08:54;1.63;;;1.20;;
3696;SDS011;60662;48.810;8.872;2022-08-05T14:09:59;4.70;;;1.10;;
3696;SDS011;60662;48.810;8.872;2022-08-05T14:11:02;3.37;;;1.27;;
3696;SDS011;60662;48.810;8.872;2022-08-05T14:12:21;3.17;;;1.10;;
3696;SDS011;60662;48.810;8.872;2022-08-05T14:13:33;2.47;;;1.40;;
3696;SDS011;60662;48.810;8.872;2022-08-05T14:14:34;5.53;;;1.33;;
3696;SDS011;60662;48.810;8.872;2022-08-05T14:15:36;2.03;;;1.30;;
3696;SDS011;60662;48.810;8.872;2022-08-05T14:16:58;9.20;;;2.33;;
3696;SDS011;60662;48.810;8.872;2022-08-05T14:18:01;4.90;;;1.90;;
3696;SDS011;60662;48.810;8.872;2022-08-05T14:19:04;4.50;;;1.63;;
3696;SDS011;60662;48.810;8.872;2022-08-05T14:20:05;2.70;;;1.10;;
3696;SDS011;60662;48.810;8.872;2022-08-05T14:21:08;1.40;;;1.10;;
3696;SDS011;60662;48.810;8.872;2022-08-05T14:22:29;1.20;;;1.00;;
3696;SDS011;60662;48.810;8.872;2022-08-05T14:23:34;3.00;;;1.33;;
3696;SDS011;60662;48.810;8.872;2022-08-05T14:24:37;2.70;;;1.50;;
3696;SDS011;60662;48.810;8.872;2022-08-05T14:25:40;1.47;;;1.23;;
3696;SDS011;60662;48.810;8.872;2022-08-05T14:26:45;4.40;;;1.90;;
3696;SDS011;60662;48.810;8.872;2022-08-05T14:28:06;1.70;;;1.27;;
3696;SDS011;60662;48.810;8.872;2022-08-05T14:29:08;2.60;;;1.30;;
3696;SDS011;60662;48.810;8.872;2022-08-05T14:30:17;3.57;;;1.70;;
3696;SDS011;60662;48.810;8.872;2022-08-05T14:31:21;1.70;;;1.20;;
3696;SDS011;60662;48.810;8.872;2022-08-05T14:32:42;1.67;;;1.33;;
3696;SDS011;60662;48.810;8.872;2022-08-05T14:33:44;2.27;;;1.20;;
3696;SDS011;60662;48.810;8.872;2022-08-05T14:35:00;2.83;;;1.30;;
3696;SDS011;60662;48.810;8.872;2022-08-05T14:36:02;2.07;;;1.53;;
3696;SDS011;60662;48.810;8.872;2022-08-05T14:37:04;1.73;;;1.20;;
3696;SDS011;60662;48.810;8.872;2022-08-05T14:38:06;1.93;;;1.50;;
3696;SDS011;60662;48.810;8.872;2022-08-05T14:39:28;1.73;;;1.53;;
3696;SDS011;60662;48.810;8.872;2022-08-05T14:40:29;2.63;;;1.10;;
3696;SDS011;60662;48.810;8.872;2022-08-05T14:41:31;2.70;;;1.33;;
3696;SDS011;60662;48.810;8.872;2022-08-05T14:42:33;4.53;;;1.30;;
3696;SDS011;60662;48.810;8.872;2022-08-05T14:43:38;2.33;;;1.10;;
3696;SDS011;60662;48.810;8.872;2022-08-05T14:44:59;2.70;;;1.40;;
3696;SDS011;60662;48.810;8.872;2022-08-05T14:46:01;2.00;;;1.50;;
3696;SDS011;60662;48.810;8.872;2022-08-05T14:47:02;1.90;;;1.30;;
3696;SDS011;60662;48.810;8.872;2022-08-05T14:48:04;4.63;;;1.97;;
3696;SDS011;60662;48.810;8.872;2022-08-05T14:49:09;3.37;;;1.50;;
3696;SDS011;60662;48.810;8.872;2022-08-05T14:50:10;3.47;;;1.57;;
3696;SDS011;60662;48.810;8.872;2022-08-05T14:51:18;2.97;;;1.33;;
3696;SDS011;60662;48.810;8.872;2022-08-05T14:52:20;3.00;;;1.57;;
3696;SDS011;60662;48.810;8.872;2022-08-05T14:53:41;3.50;;;2.30;;
3696;SDS011;60662;48.810;8.872;2022-08-05T14:54:44;3.20;;;1.63;;
3696;SDS011;60662;48.810;8.872;2022-08-05T14:55:53;3.77;;;1.97;;
3696;SDS011;60662;48.810;8.872;2022-08-05T14:56:55;2.10;;;1.37;;
3696;SDS011;60662;48.810;8.872;2022-08-05T14:57:57;3.93;;;1.27;;
3696;SDS011;60662;48.810;8.872;2022-08-05T14:59:00;5.67;;;1.37;;
3696;SDS011;60662;48.810;8.872;2022-08-05T15:00:03;3.43;;;2.10;;
3696;SDS011;60662;48.810;8.872;2022-08-05T15:01:07;5.60;;;2.03;;
3696;SDS011;60662;48.810;8.872;2022-08-05T15:02:17;2.00;;;1.30;;
3696;SDS011;60662;48.810;8.872;2022-08-05T15:03:20;2.37;;;1.53;;
3696;SDS011;60662;48.810;8.872;2022-08-05T15:04:23;5.80;;;2.03;;
3696;SDS011;60662;48.810;8.872;2022-08-05T15:05:29;3.57;;;1.40;;
3696;SDS011;60662;48.810;8.872;2022-08-05T15:06:50;3.60;;;2.27;;
3696;SDS011;60662;48.810;8.872;2022-08-05T15:07:52;3.80;;;1.70;;
3696;SDS011;60662;48.810;8.872;2022-08-05T15:09:13;6.90;;;1.87;;
3696;SDS011;60662;48.810;8.872;2022-08-05T15:10:15;5.97;;;1.50;;
3696;SDS011;60662;48.810;8.872;2022-08-05T15:11:17;2.07;;;1.30;;
3696;SDS011;60662;48.810;8.872;2022-08-05T15:12:19;7.67;;;2.00;;
3696;SDS011;60662;48.810;8.872;2022-08-05T15:13:27;2.87;;;1.60;;
3696;SDS011;60662;48.810;8.872;2022-08-05T15:14:46;1.90;;;1.30;;
3696;SDS011;60662;48.810;8.872;2022-08-05T15:15:50;5.30;;;2.90;;
3696;SDS011;60662;48.810;8.872;2022-08-05T15:16:57;5.77;;;1.63;;
3696;SDS011;60662;48.810;8.872;2022-08-05T15:17:59;3.90;;;2.10;;
3696;SDS011;60662;48.810;8.872;2022-08-05T15:19:05;3.77;;;1.57;;